createdAt,value
2022-07-25T00:02:07.512Z,98659.94
2022-07-25T00:04:35.878Z,98671.72
2022-07-25T00:07:03.095Z,98681.97
2022-07-25T00:09:30.040Z,98682.13
2022-07-25T00:11:56.929Z,98671.19
2022-07-25T00:14:23.765Z,98675.13
2022-07-25T00:16:50.622Z,98663.03
2022-07-25T00:19:18.333Z,98671.44
2022-07-25T00:21:45.307Z,98659.31
2022-07-25T00:24:12.136Z,98672.06
2022-07-25T00:26:40.498Z,98681.94
2022-07-25T00:29:07.749Z,98662.75
2022-07-25T00:31:34.755Z,98640.19
2022-07-25T00:34:02.285Z,98658.72
2022-07-25T00:36:29.235Z,98655.50
2022-07-25T00:38:56.066Z,98671.56
2022-07-25T00:41:22.902Z,98669.56
2022-07-25T00:43:49.710Z,98672.53
2022-07-25T00:46:19.045Z,98675.34
2022-07-25T00:48:46.190Z,98665.25
2022-07-25T00:51:13.110Z,98681.13
2022-07-25T00:53:40.153Z,98670.16
2022-07-25T00:56:07.839Z,98678.44
2022-07-25T00:58:35.450Z,98678.44
2022-07-25T01:01:02.854Z,98678.28
2022-07-25T01:03:30.140Z,98669.19
2022-07-25T01:05:57.121Z,98673.47
2022-07-25T01:08:24.046Z,98674.25
2022-07-25T01:10:51.017Z,98675.09
2022-07-25T01:13:17.843Z,98663.28
2022-07-25T01:15:44.851Z,98667.03
2022-07-25T01:18:11.706Z,98662.66
2022-07-25T01:20:38.514Z,98661.28
2022-07-25T01:23:05.358Z,98661.28
2022-07-25T01:25:32.381Z,98658.81
2022-07-25T01:27:59.316Z,98656.84
2022-07-25T01:30:26.923Z,98652.81
2022-07-25T01:32:54.059Z,98631.25
2022-07-25T01:35:21.078Z,98641.84
2022-07-25T01:37:48.232Z,98653.50
2022-07-25T01:40:15.645Z,98660.03
2022-07-25T01:42:43.467Z,98641.13
2022-07-25T01:45:11.517Z,98652.03
2022-07-25T01:47:38.543Z,98649.25
2022-07-25T01:50:06.451Z,98639.53
2022-07-25T01:52:33.304Z,98640.44
2022-07-25T01:55:00.235Z,98636.31
2022-07-25T01:57:30.758Z,98645.28
2022-07-25T01:59:58.515Z,98626.75
2022-07-25T02:02:25.875Z,98636.19
2022-07-25T02:04:52.775Z,98635.97
2022-07-25T02:07:19.787Z,98632.31
2022-07-25T02:09:46.682Z,98612.13
2022-07-25T02:12:13.637Z,98641.59
2022-07-25T02:14:40.833Z,98608.31
2022-07-25T02:17:08.114Z,98631.38
2022-07-25T02:19:36.138Z,98637.44
2022-07-25T02:22:03.396Z,98625.19
2022-07-25T02:24:30.227Z,98626.84
2022-07-25T02:26:57.181Z,98627.88
2022-07-25T02:29:24.386Z,98620.13
2022-07-25T02:31:52.979Z,98627.59
2022-07-25T02:34:19.864Z,98630.53
2022-07-25T02:36:46.754Z,98621.41
2022-07-25T02:39:13.707Z,98624.03
2022-07-25T02:41:40.881Z,98629.63
2022-07-25T02:44:08.100Z,98632.78
2022-07-25T02:46:35.361Z,98563.50
2022-07-25T02:49:02.371Z,98589.97
2022-07-25T02:51:29.472Z,98604.22
2022-07-25T02:53:58.101Z,98602.84
2022-07-25T02:56:30.199Z,98600.22
2022-07-25T02:58:58.753Z,98606.84
2022-07-25T03:01:25.643Z,98607.53
2022-07-25T03:03:52.712Z,98583.63
2022-07-25T03:06:19.606Z,98608.22
2022-07-25T03:08:46.519Z,98602.47
2022-07-25T03:11:14.222Z,98588.91
2022-07-25T03:13:41.086Z,98607.16
2022-07-25T03:16:08.226Z,98598.34
2022-07-25T03:18:35.053Z,98604.94
2022-07-25T03:21:02.015Z,98609.25
2022-07-25T03:23:29.867Z,98607.19
2022-07-25T03:25:57.309Z,98589.81
2022-07-25T03:28:24.796Z,98608.88
2022-07-25T03:30:52.615Z,98599.59
2022-07-25T03:33:19.524Z,98609.97
2022-07-25T03:35:46.923Z,98585.13
2022-07-25T03:38:13.951Z,98597.13
2022-07-25T03:40:41.060Z,98585.50
2022-07-25T03:43:07.884Z,98584.41
2022-07-25T03:45:35.080Z,98579.28
2022-07-25T03:48:02.109Z,98579.34
2022-07-25T03:50:28.970Z,98574.91
2022-07-25T03:52:55.848Z,98575.63
2022-07-25T03:55:22.873Z,98578.19
2022-07-25T03:57:49.709Z,98550.25
2022-07-25T04:00:17.613Z,98552.34
2022-07-25T04:02:44.634Z,98568.66
2022-07-25T04:05:11.637Z,98563.78
2022-07-25T04:07:39.026Z,98570.03
2022-07-25T04:10:07.207Z,98564.78
2022-07-25T04:12:34.399Z,98562.84
2022-07-25T04:15:01.493Z,98545.59
2022-07-25T04:17:28.328Z,98560.63
2022-07-25T04:19:55.271Z,98552.03
2022-07-25T04:22:23.500Z,98561.16
2022-07-25T04:24:50.324Z,98554.81
2022-07-25T04:27:17.256Z,98543.75
2022-07-25T04:29:44.077Z,98566.72
2022-07-25T04:32:10.957Z,98555.91
2022-07-25T04:34:37.895Z,98550.63
2022-07-25T04:37:04.727Z,98533.69
2022-07-25T04:39:31.564Z,98549.00
2022-07-25T04:41:58.443Z,98553.13
2022-07-25T04:44:25.250Z,98552.31
2022-07-25T04:46:52.233Z,98563.06
2022-07-25T04:49:19.792Z,98545.97
2022-07-25T04:51:46.687Z,98546.34
2022-07-25T04:54:13.556Z,98560.59
2022-07-25T04:56:40.525Z,98557.28
2022-07-25T04:59:07.406Z,98557.28
2022-07-25T05:01:36.025Z,98541.50
2022-07-25T05:04:03.206Z,98525.50
2022-07-25T05:06:30.173Z,98519.03
2022-07-25T05:08:56.987Z,98565.25
2022-07-25T05:11:23.877Z,98555.94
2022-07-25T05:13:50.709Z,98550.81
2022-07-25T05:16:17.624Z,98544.50
2022-07-25T05:18:44.539Z,98557.59
2022-07-25T05:21:12.551Z,98554.16
2022-07-25T05:23:39.982Z,98559.78
2022-07-25T05:26:06.875Z,98537.81
2022-07-25T05:28:33.969Z,98542.47
2022-07-25T05:31:00.906Z,98543.00
2022-07-25T05:33:27.832Z,98557.59
2022-07-25T05:35:54.710Z,98543.44
2022-07-25T05:38:21.734Z,98548.28
2022-07-25T05:40:49.162Z,98516.22
2022-07-25T05:43:15.970Z,98520.59
2022-07-25T05:45:43.194Z,98522.63
2022-07-25T05:48:10.150Z,98525.13
2022-07-25T05:50:37.738Z,98548.41
2022-07-25T05:53:04.579Z,98518.41
2022-07-25T05:55:31.426Z,98541.00
2022-07-25T05:57:58.248Z,98521.03
2022-07-25T06:00:25.467Z,98525.88
2022-07-25T06:02:52.380Z,98520.13
2022-07-25T06:05:19.361Z,98512.81
2022-07-25T06:07:46.248Z,98499.94
2022-07-25T06:10:13.115Z,98507.00
2022-07-25T06:12:39.968Z,98527.41
2022-07-25T06:15:07.909Z,98505.41
2022-07-25T06:17:44.630Z,98505.94
2022-07-25T06:20:12.726Z,98505.81
2022-07-25T06:22:40.294Z,98501.53
2022-07-25T06:25:08.001Z,98488.72
2022-07-25T06:27:35.614Z,98498.94
2022-07-25T06:30:06.538Z,98484.47
2022-07-25T06:32:33.530Z,98490.63
2022-07-25T06:35:00.470Z,98507.03
2022-07-25T06:37:27.354Z,98489.03
2022-07-25T06:39:54.411Z,98484.25
2022-07-25T06:42:21.261Z,98485.66
2022-07-25T06:44:48.163Z,98474.13
2022-07-25T06:47:14.963Z,98461.09
2022-07-25T06:49:42.645Z,98460.13
2022-07-25T06:52:09.959Z,98486.06
2022-07-25T06:54:37.038Z,98483.41
2022-07-25T06:57:04.185Z,98468.59
2022-07-25T06:59:31.916Z,98477.69
2022-07-25T07:01:58.841Z,98464.31
2022-07-25T07:04:25.662Z,98486.97
2022-07-25T07:06:52.459Z,98490.28
2022-07-25T07:09:19.296Z,98486.69
2022-07-25T07:11:46.229Z,98463.03
2022-07-25T07:14:13.041Z,98483.25
2022-07-25T07:16:41.334Z,98483.75
2022-07-25T07:19:10.998Z,98486.06
2022-07-25T07:21:37.957Z,98474.34
2022-07-25T07:24:05.236Z,98450.22
2022-07-25T07:26:50.582Z,98463.78
2022-07-25T07:29:17.412Z,98468.44
2022-07-25T07:31:44.406Z,98467.94
2022-07-25T07:34:11.420Z,98445.97
2022-07-25T07:36:41.561Z,98466.63
2022-07-25T07:39:08.699Z,98465.78
2022-07-25T07:41:35.820Z,98469.09
2022-07-25T07:44:02.663Z,98452.91
2022-07-25T07:46:29.638Z,98437.06
2022-07-25T07:48:56.592Z,98459.50
2022-07-25T07:51:23.553Z,98460.84
2022-07-25T07:54:08.952Z,98448.91
2022-07-25T07:56:35.782Z,98450.91
2022-07-25T07:59:02.841Z,98448.28
2022-07-25T08:01:29.933Z,98442.28
2022-07-25T08:03:56.873Z,98449.91
2022-07-25T08:06:23.740Z,98444.44
2022-07-25T08:08:50.650Z,98451.88
2022-07-25T08:11:17.459Z,98455.81
2022-07-25T08:13:46.310Z,98452.50
2022-07-25T08:16:13.817Z,98443.03
2022-07-25T08:18:40.791Z,98447.00
2022-07-25T08:21:07.667Z,98444.19
2022-07-25T08:23:38.575Z,98446.16
2022-07-25T08:26:06.546Z,98432.94
2022-07-25T08:28:33.520Z,98445.59
2022-07-25T08:31:00.607Z,98443.78
2022-07-25T08:33:28.322Z,98434.16
2022-07-25T08:35:56.398Z,98445.16
2022-07-25T08:38:25.200Z,98424.16
2022-07-25T08:40:53.673Z,98442.31
2022-07-25T08:43:20.822Z,98446.25
2022-07-25T08:45:50.938Z,98446.56
2022-07-25T08:48:21.393Z,98438.38
2022-07-25T08:50:49.581Z,98439.53
2022-07-25T08:53:35.570Z,98442.94
2022-07-25T08:56:13.332Z,98436.75
2022-07-25T08:58:41.989Z,98432.41
2022-07-25T09:01:12.813Z,98413.69
2022-07-25T09:03:40.379Z,98428.91
2022-07-25T09:06:21.959Z,98425.66
2022-07-25T09:08:58.253Z,98404.53
2022-07-25T09:11:37.366Z,98404.22
2022-07-25T09:14:08.818Z,98401.47
2022-07-25T09:16:41.606Z,98405.69
2022-07-25T09:19:22.218Z,98414.59
2022-07-25T09:22:10.255Z,98413.56
2022-07-25T09:24:44.797Z,98397.72
2022-07-25T09:27:12.781Z,98371.09
2022-07-25T09:29:42.602Z,98394.59
2022-07-25T09:32:22.756Z,98393.34
2022-07-25T09:34:50.835Z,98389.88
2022-07-25T09:37:20.393Z,98389.13
2022-07-25T09:39:50.075Z,98388.97
2022-07-25T09:42:32.719Z,98391.50
2022-07-25T09:45:13.962Z,98390.28
2022-07-25T09:47:59.521Z,98390.28
2022-07-25T09:50:31.191Z,98394.78
2022-07-25T09:53:01.998Z,98393.06
2022-07-25T09:55:30.542Z,98392.47
2022-07-25T09:57:57.720Z,98389.56
2022-07-25T10:00:27.866Z,98381.97
2022-07-25T10:03:18.909Z,98379.34
2022-07-25T10:06:17.720Z,98379.53
2022-07-25T10:08:44.857Z,98368.06
2022-07-25T10:11:24.132Z,98356.34
2022-07-25T10:13:52.419Z,98355.53
2022-07-25T10:16:25.176Z,98362.31
2022-07-25T10:18:58.275Z,98362.53
2022-07-25T10:21:28.269Z,98341.38
2022-07-25T10:24:05.908Z,98353.72
2022-07-25T10:26:36.838Z,98346.09
2022-07-25T10:29:09.768Z,98346.63
2022-07-25T10:31:47.653Z,98346.91
2022-07-25T10:34:17.100Z,98340.81
2022-07-25T10:36:54.124Z,98342.50
2022-07-25T10:39:22.289Z,98339.25
2022-07-25T10:42:00.302Z,98325.13
2022-07-25T10:44:40.064Z,98327.09
2022-07-25T10:47:11.044Z,98333.97
2022-07-25T10:50:00.155Z,98330.47
2022-07-25T10:52:29.757Z,98323.88
2022-07-25T10:55:01.457Z,98331.38
2022-07-25T10:57:32.036Z,98324.66
2022-07-25T11:00:09.636Z,98315.25
2022-07-25T11:02:36.608Z,98319.84
2022-07-25T11:05:05.098Z,98306.97
2022-07-25T11:07:36.042Z,98289.56
2022-07-25T11:10:05.922Z,98293.28
2022-07-25T11:12:33.421Z,98292.56
2022-07-25T11:15:03.586Z,98303.56
2022-07-25T11:17:30.478Z,98293.56
2022-07-25T11:20:06.228Z,98295.81
2022-07-25T11:22:34.317Z,98288.66
2022-07-25T11:25:03.496Z,98293.88
2022-07-25T11:27:32.837Z,98282.78
2022-07-25T11:30:14.998Z,98282.09
2022-07-25T11:32:43.623Z,98273.66
2022-07-25T11:35:13.040Z,98269.81
2022-07-25T11:37:43.421Z,98256.75
2022-07-25T11:40:11.323Z,98252.72
2022-07-25T11:42:55.665Z,98240.91
2022-07-25T11:45:28.089Z,98242.16
2022-07-25T11:48:14.895Z,98244.81
2022-07-25T11:50:44.901Z,98236.09
2022-07-25T11:53:17.137Z,98239.66
2022-07-25T11:55:44.093Z,98231.63
2022-07-25T11:58:13.184Z,98232.09
2022-07-25T12:00:46.309Z,98224.78
2022-07-25T12:03:20.934Z,98226.31
2022-07-25T12:05:49.204Z,98216.19
2022-07-25T12:08:22.904Z,98226.03
2022-07-25T12:10:52.370Z,98227.16
2022-07-25T12:13:28.610Z,98222.19
2022-07-25T12:15:59.914Z,98194.84
2022-07-25T12:18:27.927Z,98217.16
2022-07-25T12:20:55.215Z,98226.59
2022-07-25T12:23:22.146Z,98207.56
2022-07-25T12:25:49.475Z,98201.66
2022-07-25T12:28:16.533Z,98223.53
2022-07-25T12:30:45.740Z,98221.81
2022-07-25T12:33:13.301Z,98203.59
2022-07-25T12:35:44.727Z,98191.06
2022-07-25T12:38:11.884Z,98187.47
2022-07-25T12:40:38.879Z,98174.09
2022-07-25T12:43:05.922Z,98199.22
2022-07-25T12:45:33.073Z,98188.13
2022-07-25T12:48:00.002Z,98191.13
2022-07-25T12:50:26.964Z,98197.50
2022-07-25T12:52:53.948Z,98198.63
2022-07-25T12:55:21.718Z,98191.97
2022-07-25T12:57:49.110Z,98187.09
2022-07-25T13:00:19.615Z,98182.66
2022-07-25T13:02:47.658Z,98197.09
2022-07-25T13:05:14.784Z,98192.72
2022-07-25T13:07:42.517Z,98199.00
2022-07-25T13:10:10.813Z,98193.94
2022-07-25T13:12:37.643Z,98186.72
2022-07-25T13:15:05.427Z,98201.00
2022-07-25T13:17:32.793Z,98190.53
2022-07-25T13:19:59.781Z,98210.72
2022-07-25T13:22:27.392Z,98197.78
2022-07-25T13:24:54.456Z,98211.19
2022-07-25T13:27:22.874Z,98220.72
2022-07-25T13:29:54.378Z,98220.53
2022-07-25T13:32:22.589Z,98211.06
2022-07-25T13:34:49.878Z,98196.59
2022-07-25T13:37:16.727Z,98202.47
2022-07-25T13:39:43.562Z,98200.63
2022-07-25T13:42:11.118Z,98207.50
2022-07-25T13:44:38.053Z,98206.97
2022-07-25T13:47:05.163Z,98200.53
2022-07-25T13:49:32.250Z,98190.91
2022-07-25T13:51:59.107Z,98200.03
2022-07-25T13:54:25.948Z,98185.09
2022-07-25T13:56:52.798Z,98194.28
2022-07-25T13:59:21.756Z,98168.03
2022-07-25T14:01:50.093Z,98182.50
2022-07-25T14:04:17.132Z,98190.44
2022-07-25T14:06:44.106Z,98173.66
2022-07-25T14:09:11.425Z,98184.28
2022-07-25T14:11:38.502Z,98168.50
2022-07-25T14:14:05.330Z,98186.38
2022-07-25T14:16:33.774Z,98189.16
2022-07-25T14:19:01.135Z,98180.84
2022-07-25T14:21:28.075Z,98169.88
2022-07-25T14:23:54.952Z,98191.13
2022-07-25T14:26:21.919Z,98192.50
2022-07-25T14:28:48.869Z,98190.63
2022-07-25T14:31:15.824Z,98201.69
2022-07-25T14:33:42.767Z,98231.28
2022-07-25T14:36:12.837Z,98262.16
2022-07-25T14:38:39.901Z,98218.94
2022-07-25T14:41:12.543Z,98211.78
2022-07-25T14:43:41.439Z,98216.59
2022-07-25T14:46:08.995Z,98218.06
2022-07-25T14:48:37.536Z,98212.88
2022-07-25T14:51:05.950Z,98192.97
2022-07-25T14:53:34.157Z,98208.28
2022-07-25T14:56:03.888Z,98200.69
2022-07-25T14:58:31.535Z,98195.34
2022-07-25T15:00:58.542Z,98204.25
2022-07-25T15:03:25.499Z,98206.25
2022-07-25T15:05:52.589Z,98205.53
2022-07-25T15:08:19.540Z,98204.47
2022-07-25T15:10:46.936Z,98187.66
2022-07-25T15:13:30.364Z,98203.91
2022-07-25T15:15:58.035Z,98186.50
2022-07-25T15:18:24.896Z,98194.97
2022-07-25T15:20:52.020Z,98195.72
2022-07-25T15:23:20.855Z,98172.38
2022-07-25T15:26:04.413Z,98177.59
2022-07-25T15:28:38.112Z,98188.44
2022-07-25T15:31:06.183Z,98187.56
2022-07-25T15:33:33.430Z,98173.25
2022-07-25T15:36:00.333Z,98190.78
2022-07-25T15:38:28.908Z,98182.06
2022-07-25T15:40:55.817Z,98143.88
2022-07-25T15:43:22.882Z,98161.78
2022-07-25T15:45:49.813Z,98162.13
2022-07-25T15:48:17.549Z,98179.13
2022-07-25T15:50:51.376Z,98174.94
2022-07-25T15:53:18.358Z,98198.81
2022-07-25T15:55:45.302Z,98183.94
2022-07-25T15:58:12.259Z,98187.19
2022-07-25T16:00:41.136Z,98202.41
2022-07-25T16:03:08.433Z,98205.22
2022-07-25T16:05:37.368Z,98201.97
2022-07-25T16:08:05.124Z,98196.50
2022-07-25T16:10:33.026Z,98196.50
2022-07-25T16:13:00.315Z,98205.59
2022-07-25T16:15:27.989Z,98190.66
2022-07-25T16:18:00.251Z,98209.84
2022-07-25T16:20:31.353Z,98195.88
2022-07-25T16:22:59.334Z,98205.50
2022-07-25T16:25:27.975Z,98205.22
2022-07-25T16:27:55.403Z,98199.72
2022-07-25T16:30:23.214Z,98202.25
2022-07-25T16:32:50.059Z,98209.03
2022-07-25T16:35:16.996Z,98214.69
2022-07-25T16:37:43.935Z,98199.41
2022-07-25T16:40:11.368Z,98207.81
2022-07-25T16:42:38.315Z,98213.00
2022-07-25T16:45:06.241Z,98204.66
2022-07-25T16:47:33.069Z,98206.88
2022-07-25T16:50:00.004Z,98199.38
2022-07-25T16:52:26.855Z,98198.38
2022-07-25T16:54:54.014Z,98203.72
2022-07-25T16:57:23.134Z,98195.34
2022-07-25T16:59:53.291Z,98189.22
2022-07-25T17:02:24.855Z,98209.72
2022-07-25T17:04:54.669Z,98194.41
2022-07-25T17:07:21.685Z,98199.16
2022-07-25T17:09:48.528Z,98189.75
2022-07-25T17:12:16.499Z,98199.16
2022-07-25T17:14:44.107Z,98212.28
2022-07-25T17:17:11.027Z,98197.53
2022-07-25T17:19:39.887Z,98198.31
2022-07-25T17:22:08.139Z,98199.91
2022-07-25T17:24:35.838Z,98206.03
2022-07-25T17:27:03.190Z,98202.31
2022-07-25T17:29:30.069Z,98182.03
2022-07-25T17:31:57.016Z,98186.44
2022-07-25T17:34:25.235Z,98200.44
2022-07-25T17:36:52.609Z,98196.13
2022-07-25T17:39:19.524Z,98201.06
2022-07-25T17:41:46.510Z,98185.47
2022-07-25T17:44:13.797Z,98214.13
2022-07-25T17:46:40.992Z,98205.97
2022-07-25T17:49:07.942Z,98201.47
2022-07-25T17:51:34.815Z,98200.25
2022-07-25T17:54:01.735Z,98219.16
2022-07-25T17:56:28.565Z,98226.34
2022-07-25T17:58:55.500Z,98220.19
2022-07-25T18:01:22.352Z,98211.16
2022-07-25T18:03:50.266Z,98220.78
2022-07-25T18:06:17.267Z,98207.66
2022-07-25T18:08:44.108Z,98232.69
2022-07-25T18:11:11.048Z,98233.53
2022-07-25T18:13:38.024Z,98237.66
2022-07-25T18:16:05.350Z,98250.84
2022-07-25T18:18:33.000Z,98262.38
2022-07-25T18:21:00.212Z,98257.03
2022-07-25T18:23:28.678Z,98271.88
2022-07-25T18:25:55.677Z,98269.09
2022-07-25T18:28:22.687Z,98274.03
2022-07-25T18:30:52.292Z,98277.19
2022-07-25T18:33:20.168Z,98272.28
2022-07-25T18:35:47.008Z,98292.84
2022-07-25T18:38:13.883Z,98309.47
2022-07-25T18:40:40.806Z,98305.81
2022-07-25T18:43:09.032Z,98300.50
2022-07-25T18:45:38.011Z,98325.56
2022-07-25T18:48:06.351Z,98322.72
2022-07-25T18:50:33.186Z,98336.22
2022-07-25T18:53:00.397Z,98337.06
2022-07-25T18:55:27.284Z,98339.94
2022-07-25T18:57:54.198Z,98359.22
2022-07-25T19:00:21.236Z,98353.28
2022-07-25T19:02:48.179Z,98363.94
2022-07-25T19:05:15.152Z,98367.03
2022-07-25T19:07:42.240Z,98367.59
2022-07-25T19:10:10.342Z,98377.06
2022-07-25T19:12:37.390Z,98397.53
2022-07-25T19:15:06.129Z,98395.84
2022-07-25T19:17:34.041Z,98408.31
2022-07-25T19:20:01.444Z,98419.19
2022-07-25T19:22:28.281Z,98419.97
2022-07-25T19:24:55.095Z,98408.63
2022-07-25T19:27:24.874Z,98427.91
2022-07-25T19:29:51.782Z,98419.97
2022-07-25T19:32:18.624Z,98434.31
2022-07-25T19:34:45.648Z,98449.91
2022-07-25T19:37:12.589Z,98452.09
2022-07-25T19:39:39.439Z,98444.94
2022-07-25T19:42:08.598Z,98445.72
2022-07-25T19:44:36.801Z,98463.75
2022-07-25T19:47:06.193Z,98462.88
2022-07-25T19:49:35.341Z,98466.09
2022-07-25T19:52:02.423Z,98456.56
2022-07-25T19:54:29.247Z,98476.72
2022-07-25T19:56:56.055Z,98466.41
2022-07-25T19:59:22.957Z,98469.09
2022-07-25T20:01:50.343Z,98468.59
2022-07-25T20:04:17.230Z,98468.69
2022-07-25T20:06:44.383Z,98480.44
2022-07-25T20:09:11.404Z,98474.78
2022-07-25T20:11:38.746Z,98466.94
2022-07-25T20:14:06.115Z,98477.59
2022-07-25T20:16:36.134Z,98469.66
2022-07-25T20:19:09.370Z,98485.66
2022-07-25T20:21:38.023Z,98496.13
2022-07-25T20:24:05.269Z,98502.84
2022-07-25T20:26:32.471Z,98502.22
2022-07-25T20:28:59.462Z,98497.47
2022-07-25T20:31:26.455Z,98509.88
2022-07-25T20:33:53.966Z,98503.66
2022-07-25T20:36:21.168Z,98498.09
2022-07-25T20:38:48.028Z,98499.06
2022-07-25T20:41:15.566Z,98496.16
2022-07-25T20:43:42.815Z,98506.66
2022-07-25T20:46:09.748Z,98498.91
2022-07-25T20:48:37.227Z,98508.16
2022-07-25T20:51:04.377Z,98509.72
2022-07-25T20:53:31.501Z,98518.63
2022-07-25T20:55:59.199Z,98522.03
2022-07-25T20:58:26.056Z,98527.34
2022-07-25T21:00:52.931Z,98527.69
2022-07-25T21:03:19.823Z,98529.56
2022-07-25T21:05:46.650Z,98523.72
2022-07-25T21:08:13.626Z,98515.81
2022-07-25T21:10:40.467Z,98542.13
2022-07-25T21:13:07.685Z,98544.50
2022-07-25T21:15:34.815Z,98552.91
2022-07-25T21:18:01.994Z,98547.88
2022-07-25T21:20:28.977Z,98557.84
2022-07-25T21:22:55.792Z,98558.69
2022-07-25T21:25:22.854Z,98552.81
2022-07-25T21:27:49.699Z,98555.47
2022-07-25T21:30:16.525Z,98568.53
2022-07-25T21:32:44.866Z,98557.91
2022-07-25T21:35:11.694Z,98570.78
2022-07-25T21:37:38.785Z,98588.41
2022-07-25T21:40:06.711Z,98590.75
2022-07-25T21:42:33.609Z,98570.22
2022-07-25T21:45:00.434Z,98586.25
2022-07-25T21:47:27.233Z,98595.56
2022-07-25T21:50:13.153Z,98599.31
2022-07-25T21:52:43.037Z,98614.31
2022-07-25T21:55:09.946Z,98607.78
2022-07-25T21:57:36.770Z,98616.19
2022-07-25T22:00:09.656Z,98626.44
2022-07-25T22:02:36.477Z,98620.53
2022-07-25T22:05:04.016Z,98626.16
2022-07-25T22:07:31.065Z,98613.28
2022-07-25T22:09:57.998Z,98620.28
2022-07-25T22:12:24.798Z,98617.63
2022-07-25T22:14:51.623Z,98612.16
2022-07-25T22:17:18.466Z,98626.25
2022-07-25T22:19:45.653Z,98612.75
2022-07-25T22:22:12.487Z,98626.94
2022-07-25T22:24:44.499Z,98623.19
2022-07-25T22:27:13.244Z,98602.56
2022-07-25T22:29:41.153Z,98619.88
2022-07-25T22:32:08.313Z,98618.94
2022-07-25T22:34:35.192Z,98622.28
2022-07-25T22:37:02.059Z,98628.59
2022-07-25T22:39:28.884Z,98637.19
2022-07-25T22:41:55.729Z,98642.03
2022-07-25T22:44:22.700Z,98638.22
2022-07-25T22:46:49.538Z,98634.78
2022-07-25T22:49:16.486Z,98655.00
2022-07-25T22:51:43.440Z,98665.13
2022-07-25T22:54:10.312Z,98657.88
2022-07-25T22:56:37.129Z,98658.22
2022-07-25T22:59:04.092Z,98667.00
2022-07-25T23:01:31.097Z,98663.19
2022-07-25T23:03:58.068Z,98660.75
2022-07-25T23:06:25.158Z,98667.16
2022-07-25T23:08:52.876Z,98673.28
2022-07-25T23:11:19.888Z,98674.25
2022-07-25T23:13:47.001Z,98669.69
2022-07-25T23:16:14.222Z,98684.06
2022-07-25T23:18:41.094Z,98673.66
2022-07-25T23:21:07.964Z,98687.91
2022-07-25T23:23:34.861Z,98687.22
2022-07-25T23:26:02.058Z,98690.56
2022-07-25T23:28:29.123Z,98670.06
2022-07-25T23:30:56.049Z,98698.66
2022-07-25T23:33:25.752Z,98692.06
2022-07-25T23:35:53.773Z,98692.91
2022-07-25T23:38:21.669Z,98705.97
2022-07-25T23:40:49.166Z,98708.81
2022-07-25T23:43:17.621Z,98706.81
2022-07-25T23:45:58.744Z,98715.09
2022-07-25T23:48:26.581Z,98712.78
2022-07-25T23:50:53.445Z,98709.97
2022-07-25T23:53:20.270Z,98717.41
2022-07-25T23:55:47.085Z,98703.22
2022-07-25T23:58:13.912Z,98722.22
